sensor_id;sensor_type;location;lat;lon;timestamp;pressure;altitude;pressure_sealevel;temperature;humidity
24858;BME280;12935;50.782;6.074;2023-06-14T00:00:30;99268.19;;;18.80;62.00
24858;BME280;12935;50.782;6.074;2023-06-14T00:02:56;99268.00;;;18.75;61.93
24858;BME280;12935;50.782;6.074;2023-06-14T00:05:22;99269.69;;;18.72;62.78
24858;BME280;12935;50.782;6.074;2023-06-14T00:07:49;99264.16;;;18.72;63.21
24858;BME280;12935;50.782;6.074;2023-06-14T00:10:18;99266.00;;;18.75;63.02
24858;BME280;12935;50.782;6.074;2023-06-14T00:12:44;99267.41;;;18.80;63.35
24858;BME280;12935;50.782;6.074;2023-06-14T00:15:09;99259.66;;;18.66;63.33
24858;BME280;12935;50.782;6.074;2023-06-14T00:17:35;99271.19;;;18.64;63.75
24858;BME280;12935;50.782;6.074;2023-06-14T00:20:03;99267.00;;;18.60;63.63
24858;BME280;12935;50.782;6.074;2023-06-14T00:22:31;99272.66;;;18.56;64.19
24858;BME280;12935;50.782;6.074;2023-06-14T00:24:56;99265.06;;;18.47;64.30
24858;BME280;12935;50.782;6.074;2023-06-14T00:27:22;99268.59;;;18.48;64.46
24858;BME280;12935;50.782;6.074;2023-06-14T00:29:47;99269.72;;;18.50;64.64
24858;BME280;12935;50.782;6.074;2023-06-14T00:32:12;99272.28;;;18.45;65.22
24858;BME280;12935;50.782;6.074;2023-06-14T00:34:38;99269.47;;;18.36;65.27
24858;BME280;12935;50.782;6.074;2023-06-14T00:37:03;99258.16;;;18.21;65.68
24858;BME280;12935;50.782;6.074;2023-06-14T00:39:28;99271.09;;;18.24;66.71
24858;BME280;12935;50.782;6.074;2023-06-14T00:41:54;99272.75;;;18.21;67.13
24858;BME280;12935;50.782;6.074;2023-06-14T00:44:19;99273.66;;;18.18;67.43
24858;BME280;12935;50.782;6.074;2023-06-14T00:46:45;99272.16;;;18.27;67.65
24858;BME280;12935;50.782;6.074;2023-06-14T00:49:12;99271.25;;;18.30;67.75
24858;BME280;12935;50.782;6.074;2023-06-14T00:51:39;99276.22;;;18.35;68.27
24858;BME280;12935;50.782;6.074;2023-06-14T00:54:04;99273.13;;;18.33;68.20
24858;BME280;12935;50.782;6.074;2023-06-14T00:56:30;99260.59;;;18.19;68.91
24858;BME280;12935;50.782;6.074;2023-06-14T00:58:56;99265.69;;;18.20;68.64
24858;BME280;12935;50.782;6.074;2023-06-14T01:01:22;99260.56;;;18.10;69.59
24858;BME280;12935;50.782;6.074;2023-06-14T01:03:49;99278.97;;;18.13;69.64
24858;BME280;12935;50.782;6.074;2023-06-14T01:06:31;99277.31;;;18.15;69.75
24858;BME280;12935;50.782;6.074;2023-06-14T01:09:37;99276.66;;;18.11;70.04
24858;BME280;12935;50.782;6.074;2023-06-14T01:12:08;99273.91;;;18.11;70.43
24858;BME280;12935;50.782;6.074;2023-06-14T01:14:36;99275.72;;;18.05;71.12
24858;BME280;12935;50.782;6.074;2023-06-14T01:17:02;99267.22;;;18.00;71.66
24858;BME280;12935;50.782;6.074;2023-06-14T01:19:27;99271.78;;;17.94;71.98
24858;BME280;12935;50.782;6.074;2023-06-14T01:21:55;99269.53;;;18.01;72.44
24858;BME280;12935;50.782;6.074;2023-06-14T01:24:20;99272.63;;;18.03;72.01
24858;BME280;12935;50.782;6.074;2023-06-14T01:26:52;99270.75;;;18.00;72.34
24858;BME280;12935;50.782;6.074;2023-06-14T01:29:22;99265.50;;;17.93;72.61
24858;BME280;12935;50.782;6.074;2023-06-14T01:31:47;99274.09;;;17.95;72.78
24858;BME280;12935;50.782;6.074;2023-06-14T01:34:14;99263.50;;;17.94;72.64
24858;BME280;12935;50.782;6.074;2023-06-14T01:36:41;99273.56;;;17.87;71.99
24858;BME280;12935;50.782;6.074;2023-06-14T01:39:09;99265.28;;;17.87;71.95
24858;BME280;12935;50.782;6.074;2023-06-14T01:41:35;99271.31;;;17.95;71.71
24858;BME280;12935;50.782;6.074;2023-06-14T01:44:01;99261.50;;;17.94;71.69
24858;BME280;12935;50.782;6.074;2023-06-14T01:46:27;99267.22;;;18.00;71.60
24858;BME280;12935;50.782;6.074;2023-06-14T01:48:52;99263.34;;;17.97;71.03
24858;BME280;12935;50.782;6.074;2023-06-14T01:51:18;99268.44;;;17.99;71.27
24858;BME280;12935;50.782;6.074;2023-06-14T01:53:43;99260.16;;;17.99;71.38
24858;BME280;12935;50.782;6.074;2023-06-14T01:56:09;99268.09;;;17.97;70.93
24858;BME280;12935;50.782;6.074;2023-06-14T01:58:34;99275.34;;;17.81;71.44
24858;BME280;12935;50.782;6.074;2023-06-14T02:01:00;99273.53;;;17.66;71.58
24858;BME280;12935;50.782;6.074;2023-06-14T02:03:26;99278.28;;;17.65;71.84
24858;BME280;12935;50.782;6.074;2023-06-14T02:05:51;99274.88;;;17.61;72.42
24858;BME280;12935;50.782;6.074;2023-06-14T02:08:17;99278.63;;;17.54;72.97
24858;BME280;12935;50.782;6.074;2023-06-14T02:10:42;99271.66;;;17.50;73.22
24858;BME280;12935;50.782;6.074;2023-06-14T02:13:07;99271.47;;;17.44;73.42
24858;BME280;12935;50.782;6.074;2023-06-14T02:15:33;99265.03;;;17.47;73.90
24858;BME280;12935;50.782;6.074;2023-06-14T02:18:02;99271.25;;;17.39;74.50
24858;BME280;12935;50.782;6.074;2023-06-14T02:20:28;99265.31;;;17.28;75.02
24858;BME280;12935;50.782;6.074;2023-06-14T02:22:54;99282.09;;;17.33;75.74
24858;BME280;12935;50.782;6.074;2023-06-14T02:25:19;99276.91;;;17.35;75.76
24858;BME280;12935;50.782;6.074;2023-06-14T02:27:45;99279.09;;;17.40;75.93
24858;BME280;12935;50.782;6.074;2023-06-14T02:30:11;99287.63;;;17.46;75.81
24858;BME280;12935;50.782;6.074;2023-06-14T02:32:36;99288.69;;;17.48;75.69
24858;BME280;12935;50.782;6.074;2023-06-14T02:35:02;99272.16;;;17.36;75.57
24858;BME280;12935;50.782;6.074;2023-06-14T02:37:28;99283.41;;;17.41;75.59
24858;BME280;12935;50.782;6.074;2023-06-14T02:39:53;99292.38;;;17.45;75.96
24858;BME280;12935;50.782;6.074;2023-06-14T02:42:18;99286.94;;;17.42;76.83
24858;BME280;12935;50.782;6.074;2023-06-14T02:44:44;99293.59;;;17.44;77.22
24858;BME280;12935;50.782;6.074;2023-06-14T02:47:11;99296.00;;;17.42;76.59
24858;BME280;12935;50.782;6.074;2023-06-14T02:49:37;99298.47;;;17.28;76.58
24858;BME280;12935;50.782;6.074;2023-06-14T02:52:03;99290.72;;;17.23;76.90
24858;BME280;12935;50.782;6.074;2023-06-14T02:54:28;99295.59;;;17.18;77.81
24858;BME280;12935;50.782;6.074;2023-06-14T02:56:54;99292.72;;;17.22;78.18
24858;BME280;12935;50.782;6.074;2023-06-14T02:59:19;99292.72;;;17.22;78.03
24858;BME280;12935;50.782;6.074;2023-06-14T03:01:46;99289.97;;;17.09;78.16
24858;BME280;12935;50.782;6.074;2023-06-14T03:04:12;99285.31;;;17.19;78.30
24858;BME280;12935;50.782;6.074;2023-06-14T03:06:37;99289.28;;;17.18;77.47
24858;BME280;12935;50.782;6.074;2023-06-14T03:09:03;99304.44;;;17.26;77.45
24858;BME280;12935;50.782;6.074;2023-06-14T03:11:34;99302.88;;;17.25;76.54
24858;BME280;12935;50.782;6.074;2023-06-14T03:13:59;99301.78;;;17.23;76.15
24858;BME280;12935;50.782;6.074;2023-06-14T03:16:25;99303.31;;;17.24;76.29
24858;BME280;12935;50.782;6.074;2023-06-14T03:18:51;99314.28;;;17.14;76.13
24858;BME280;12935;50.782;6.074;2023-06-14T03:21:17;99317.91;;;16.99;75.66
24858;BME280;12935;50.782;6.074;2023-06-14T03:23:43;99312.72;;;16.88;76.37
24858;BME280;12935;50.782;6.074;2023-06-14T03:26:09;99310.19;;;16.81;77.05
24858;BME280;12935;50.782;6.074;2023-06-14T03:28:38;99306.06;;;16.73;77.50
24858;BME280;12935;50.782;6.074;2023-06-14T03:31:03;99306.22;;;16.82;78.14
24858;BME280;12935;50.782;6.074;2023-06-14T03:33:28;99315.03;;;16.90;78.36
24858;BME280;12935;50.782;6.074;2023-06-14T03:35:54;99321.09;;;16.84;78.18
24858;BME280;12935;50.782;6.074;2023-06-14T03:38:21;99321.22;;;16.81;78.54
24858;BME280;12935;50.782;6.074;2023-06-14T03:40:46;99320.97;;;16.75;78.99
24858;BME280;12935;50.782;6.074;2023-06-14T03:43:12;99314.91;;;16.68;79.45
24858;BME280;12935;50.782;6.074;2023-06-14T03:45:37;99319.31;;;16.65;80.41
24858;BME280;12935;50.782;6.074;2023-06-14T03:48:02;99321.84;;;16.72;80.67
24858;BME280;12935;50.782;6.074;2023-06-14T03:50:28;99319.53;;;16.71;80.72
24858;BME280;12935;50.782;6.074;2023-06-14T03:52:53;99328.38;;;16.78;81.16
24858;BME280;12935;50.782;6.074;2023-06-14T03:55:19;99323.97;;;16.81;81.43
24858;BME280;12935;50.782;6.074;2023-06-14T03:57:44;99323.19;;;16.80;81.27
24858;BME280;12935;50.782;6.074;2023-06-14T04:00:10;99325.28;;;16.76;81.44
24858;BME280;12935;50.782;6.074;2023-06-14T04:02:36;99324.72;;;16.69;81.81
24858;BME280;12935;50.782;6.074;2023-06-14T04:05:02;99330.78;;;16.64;82.01
24858;BME280;12935;50.782;6.074;2023-06-14T04:07:28;99327.59;;;16.65;82.32
24858;BME280;12935;50.782;6.074;2023-06-14T04:09:55;99336.03;;;16.58;83.50
24858;BME280;12935;50.782;6.074;2023-06-14T04:12:20;99339.91;;;16.61;84.18
24858;BME280;12935;50.782;6.074;2023-06-14T04:14:46;99339.84;;;16.64;85.21
24858;BME280;12935;50.782;6.074;2023-06-14T04:17:11;99349.66;;;16.65;85.51
24858;BME280;12935;50.782;6.074;2023-06-14T04:19:36;99338.34;;;16.60;85.42
24858;BME280;12935;50.782;6.074;2023-06-14T04:22:02;99341.81;;;16.64;86.03
24858;BME280;12935;50.782;6.074;2023-06-14T04:24:28;99338.97;;;16.67;86.23
24858;BME280;12935;50.782;6.074;2023-06-14T04:26:58;99341.25;;;16.69;86.28
24858;BME280;12935;50.782;6.074;2023-06-14T04:29:25;99346.91;;;16.65;86.12
24858;BME280;12935;50.782;6.074;2023-06-14T04:31:53;99347.25;;;16.67;86.37
24858;BME280;12935;50.782;6.074;2023-06-14T04:34:19;99334.38;;;16.61;85.92
24858;BME280;12935;50.782;6.074;2023-06-14T04:36:47;99341.84;;;16.76;85.69
24858;BME280;12935;50.782;6.074;2023-06-14T04:39:21;99342.41;;;16.84;85.86
24858;BME280;12935;50.782;6.074;2023-06-14T04:41:46;99352.78;;;16.93;84.59
24858;BME280;12935;50.782;6.074;2023-06-14T04:44:12;99341.22;;;16.98;84.13
24858;BME280;12935;50.782;6.074;2023-06-14T04:46:39;99341.56;;;17.00;83.20
24858;BME280;12935;50.782;6.074;2023-06-14T04:49:15;99347.50;;;17.11;82.00
24858;BME280;12935;50.782;6.074;2023-06-14T04:51:44;99356.66;;;17.21;81.62
24858;BME280;12935;50.782;6.074;2023-06-14T04:54:10;99361.22;;;17.27;81.83
24858;BME280;12935;50.782;6.074;2023-06-14T04:56:39;99358.34;;;17.31;79.78
24858;BME280;12935;50.782;6.074;2023-06-14T04:59:05;99352.13;;;17.39;78.75
24858;BME280;12935;50.782;6.074;2023-06-14T05:01:31;99355.47;;;17.47;78.52
24858;BME280;12935;50.782;6.074;2023-06-14T05:03:57;99357.19;;;17.53;77.51
24858;BME280;12935;50.782;6.074;2023-06-14T05:06:23;99363.28;;;17.61;76.04
24858;BME280;12935;50.782;6.074;2023-06-14T05:08:48;99357.44;;;17.59;73.10
24858;BME280;12935;50.782;6.074;2023-06-14T05:11:14;99356.44;;;17.66;72.43
24858;BME280;12935;50.782;6.074;2023-06-14T05:13:39;99362.06;;;17.75;72.09
24858;BME280;12935;50.782;6.074;2023-06-14T05:16:05;99350.44;;;17.80;71.99
24858;BME280;12935;50.782;6.074;2023-06-14T05:18:31;99367.44;;;17.91;71.85
24858;BME280;12935;50.782;6.074;2023-06-14T05:20:59;99367.63;;;17.97;70.37
24858;BME280;12935;50.782;6.074;2023-06-14T05:23:24;99359.22;;;18.00;69.88
24858;BME280;12935;50.782;6.074;2023-06-14T05:25:50;99362.53;;;18.08;69.25
24858;BME280;12935;50.782;6.074;2023-06-14T05:28:15;99369.78;;;18.14;69.46
24858;BME280;12935;50.782;6.074;2023-06-14T05:30:41;99358.16;;;18.19;69.64
24858;BME280;12935;50.782;6.074;2023-06-14T05:33:06;99360.66;;;18.27;69.61
24858;BME280;12935;50.782;6.074;2023-06-14T05:35:32;99364.41;;;18.33;68.43
24858;BME280;12935;50.782;6.074;2023-06-14T05:37:57;99360.63;;;18.39;68.40
24858;BME280;12935;50.782;6.074;2023-06-14T05:40:23;99352.78;;;18.38;68.02
24858;BME280;12935;50.782;6.074;2023-06-14T05:42:48;99365.44;;;18.48;67.58
24858;BME280;12935;50.782;6.074;2023-06-14T05:45:13;99358.69;;;18.49;67.33
24858;BME280;12935;50.782;6.074;2023-06-14T05:47:41;99359.22;;;18.56;67.17
24858;BME280;12935;50.782;6.074;2023-06-14T05:50:06;99370.63;;;18.58;67.96
24858;BME280;12935;50.782;6.074;2023-06-14T05:52:33;99369.03;;;18.70;67.83
24858;BME280;12935;50.782;6.074;2023-06-14T05:54:59;99379.03;;;18.77;66.44
24858;BME280;12935;50.782;6.074;2023-06-14T05:57:25;99378.03;;;18.83;65.05
24858;BME280;12935;50.782;6.074;2023-06-14T05:59:50;99375.75;;;18.91;64.43
24858;BME280;12935;50.782;6.074;2023-06-14T06:02:16;99381.03;;;18.98;64.18
24858;BME280;12935;50.782;6.074;2023-06-14T06:04:41;99388.28;;;19.05;64.53
24858;BME280;12935;50.782;6.074;2023-06-14T06:07:07;99384.16;;;19.09;63.45
24858;BME280;12935;50.782;6.074;2023-06-14T06:09:32;99392.19;;;19.16;63.63
24858;BME280;12935;50.782;6.074;2023-06-14T06:11:58;99390.69;;;19.24;63.51
24858;BME280;12935;50.782;6.074;2023-06-14T06:14:23;99394.22;;;19.25;63.61
24858;BME280;12935;50.782;6.074;2023-06-14T06:16:49;99397.06;;;19.34;64.41
24858;BME280;12935;50.782;6.074;2023-06-14T06:19:14;99401.19;;;19.39;65.27
24858;BME280;12935;50.782;6.074;2023-06-14T06:21:40;99409.25;;;19.46;65.70
24858;BME280;12935;50.782;6.074;2023-06-14T06:24:06;99408.97;;;19.53;65.53
24858;BME280;12935;50.782;6.074;2023-06-14T06:26:31;99409.16;;;19.58;64.18
24858;BME280;12935;50.782;6.074;2023-06-14T06:28:57;99414.28;;;19.69;62.01
24858;BME280;12935;50.782;6.074;2023-06-14T06:31:23;99398.28;;;19.73;60.61
24858;BME280;12935;50.782;6.074;2023-06-14T06:33:48;99404.31;;;19.81;59.83
24858;BME280;12935;50.782;6.074;2023-06-14T06:36:13;99414.78;;;19.86;59.30
24858;BME280;12935;50.782;6.074;2023-06-14T06:38:39;99418.81;;;19.94;59.31
24858;BME280;12935;50.782;6.074;2023-06-14T06:41:04;99416.69;;;19.98;58.11
24858;BME280;12935;50.782;6.074;2023-06-14T06:43:29;99420.81;;;20.03;57.27
24858;BME280;12935;50.782;6.074;2023-06-14T06:45:54;99420.22;;;20.08;57.08
24858;BME280;12935;50.782;6.074;2023-06-14T06:48:20;99422.41;;;20.13;56.33
24858;BME280;12935;50.782;6.074;2023-06-14T06:50:45;99424.84;;;20.20;55.94
24858;BME280;12935;50.782;6.074;2023-06-14T06:53:10;99429.94;;;20.21;55.96
24858;BME280;12935;50.782;6.074;2023-06-14T06:55:36;99425.50;;;20.24;56.17
24858;BME280;12935;50.782;6.074;2023-06-14T06:58:01;99433.50;;;20.22;55.63
24858;BME280;12935;50.782;6.074;2023-06-14T07:00:29;99426.88;;;20.28;55.20
24858;BME280;12935;50.782;6.074;2023-06-14T07:02:55;99433.22;;;20.38;55.45
24858;BME280;12935;50.782;6.074;2023-06-14T07:05:20;99430.16;;;20.45;54.82
24858;BME280;12935;50.782;6.074;2023-06-14T07:07:45;99436.00;;;20.47;54.06
24858;BME280;12935;50.782;6.074;2023-06-14T07:10:11;99447.13;;;20.56;54.11
24858;BME280;12935;50.782;6.074;2023-06-14T07:12:36;99440.78;;;20.65;53.34
24858;BME280;12935;50.782;6.074;2023-06-14T07:15:05;99455.75;;;20.77;53.10
24858;BME280;12935;50.782;6.074;2023-06-14T07:17:31;99449.09;;;20.83;52.25
24858;BME280;12935;50.782;6.074;2023-06-14T07:19:57;99457.91;;;20.91;52.28
24858;BME280;12935;50.782;6.074;2023-06-14T07:22:23;99459.56;;;20.97;51.70
24858;BME280;12935;50.782;6.074;2023-06-14T07:24:48;99454.94;;;21.04;51.47
24858;BME280;12935;50.782;6.074;2023-06-14T07:27:13;99458.16;;;21.11;50.87
24858;BME280;12935;50.782;6.074;2023-06-14T07:29:39;99463.75;;;21.20;50.66
24858;BME280;12935;50.782;6.074;2023-06-14T07:32:04;99463.88;;;21.26;50.53
24858;BME280;12935;50.782;6.074;2023-06-14T07:34:30;99451.84;;;21.20;50.10
24858;BME280;12935;50.782;6.074;2023-06-14T07:36:55;99464.03;;;21.22;49.21
24858;BME280;12935;50.782;6.074;2023-06-14T07:39:20;99465.56;;;21.32;49.49
24858;BME280;12935;50.782;6.074;2023-06-14T07:41:46;99468.13;;;21.45;49.25
24858;BME280;12935;50.782;6.074;2023-06-14T07:44:11;99473.38;;;21.52;48.70
24858;BME280;12935;50.782;6.074;2023-06-14T07:46:37;99469.00;;;21.60;48.81
24858;BME280;12935;50.782;6.074;2023-06-14T07:49:03;99471.31;;;21.62;48.88
24858;BME280;12935;50.782;6.074;2023-06-14T07:51:28;99480.09;;;21.69;48.63
24858;BME280;12935;50.782;6.074;2023-06-14T07:53:54;99472.75;;;21.48;48.20
24858;BME280;12935;50.782;6.074;2023-06-14T07:56:20;99467.78;;;21.61;48.78
24858;BME280;12935;50.782;6.074;2023-06-14T07:58:45;99468.31;;;21.84;48.01
24858;BME280;12935;50.782;6.074;2023-06-14T08:01:10;99474.94;;;21.86;47.84
24858;BME280;12935;50.782;6.074;2023-06-14T08:03:36;99473.63;;;21.96;47.15
24858;BME280;12935;50.782;6.074;2023-06-14T08:06:02;99477.59;;;22.14;46.60
24858;BME280;12935;50.782;6.074;2023-06-14T08:08:27;99482.63;;;22.24;46.58
24858;BME280;12935;50.782;6.074;2023-06-14T08:10:52;99473.63;;;22.29;46.63
24858;BME280;12935;50.782;6.074;2023-06-14T08:13:18;99472.47;;;22.36;44.56
24858;BME280;12935;50.782;6.074;2023-06-14T08:15:43;99471.25;;;22.37;44.22
24858;BME280;12935;50.782;6.074;2023-06-14T08:18:09;99475.34;;;22.51;43.49
24858;BME280;12935;50.782;6.074;2023-06-14T08:20:34;99478.34;;;22.62;43.28
24858;BME280;12935;50.782;6.074;2023-06-14T08:23:00;99478.63;;;22.64;43.86
24858;BME280;12935;50.782;6.074;2023-06-14T08:25:26;99472.69;;;22.71;43.43
24858;BME280;12935;50.782;6.074;2023-06-14T08:27:52;99484.78;;;22.92;43.62
24858;BME280;12935;50.782;6.074;2023-06-14T08:30:17;99484.97;;;23.03;42.95
24858;BME280;12935;50.782;6.074;2023-06-14T08:32:43;99471.97;;;23.00;42.63
24858;BME280;12935;50.782;6.074;2023-06-14T08:35:09;99479.78;;;23.11;42.26
24858;BME280;12935;50.782;6.074;2023-06-14T08:37:40;99475.19;;;23.22;41.97
24858;BME280;12935;50.782;6.074;2023-06-14T08:40:18;99481.69;;;23.34;41.30
24858;BME280;12935;50.782;6.074;2023-06-14T08:42:45;99475.75;;;23.26;41.84
24858;BME280;12935;50.782;6.074;2023-06-14T08:45:11;99479.13;;;23.45;41.74
24858;BME280;12935;50.782;6.074;2023-06-14T08:47:36;99487.75;;;23.62;40.80
24858;BME280;12935;50.782;6.074;2023-06-14T08:50:02;99482.38;;;23.73;40.87
24858;BME280;12935;50.782;6.074;2023-06-14T08:52:33;99489.19;;;23.87;40.44
24858;BME280;12935;50.782;6.074;2023-06-14T08:55:06;99486.25;;;23.96;39.91
24858;BME280;12935;50.782;6.074;2023-06-14T08:57:32;99480.75;;;24.01;39.79
24858;BME280;12935;50.782;6.074;2023-06-14T08:59:59;99484.59;;;24.04;40.07
24858;BME280;12935;50.782;6.074;2023-06-14T09:02:30;99488.03;;;24.13;38.74
24858;BME280;12935;50.782;6.074;2023-06-14T09:04:55;99481.09;;;24.09;38.59
24858;BME280;12935;50.782;6.074;2023-06-14T09:07:24;99482.34;;;24.23;39.13
24858;BME280;12935;50.782;6.074;2023-06-14T09:10:05;99484.16;;;24.46;39.29
24858;BME280;12935;50.782;6.074;2023-06-14T09:12:31;99486.59;;;24.59;38.95
24858;BME280;12935;50.782;6.074;2023-06-14T09:14:56;99492.56;;;24.66;37.82
24858;BME280;12935;50.782;6.074;2023-06-14T09:17:23;99489.38;;;24.79;37.56
24858;BME280;12935;50.782;6.074;2023-06-14T09:19:48;99487.47;;;24.91;36.93
24858;BME280;12935;50.782;6.074;2023-06-14T09:22:13;99491.81;;;24.92;37.11
24858;BME280;12935;50.782;6.074;2023-06-14T09:24:41;99491.53;;;24.90;38.14
24858;BME280;12935;50.782;6.074;2023-06-14T09:27:06;99497.53;;;25.03;37.33
24858;BME280;12935;50.782;6.074;2023-06-14T09:29:33;99490.94;;;25.00;38.72
24858;BME280;12935;50.782;6.074;2023-06-14T09:31:58;99503.56;;;25.22;38.36
24858;BME280;12935;50.782;6.074;2023-06-14T09:34:23;99502.19;;;25.37;37.34
24858;BME280;12935;50.782;6.074;2023-06-14T09:36:49;99485.41;;;25.37;36.85
24858;BME280;12935;50.782;6.074;2023-06-14T09:39:17;99498.50;;;25.51;37.42
24858;BME280;12935;50.782;6.074;2023-06-14T09:41:42;99491.69;;;25.58;37.20
24858;BME280;12935;50.782;6.074;2023-06-14T09:44:09;99494.94;;;25.51;37.52
24858;BME280;12935;50.782;6.074;2023-06-14T09:46:36;99495.53;;;25.61;37.32
24858;BME280;12935;50.782;6.074;2023-06-14T09:49:02;99497.94;;;25.73;37.17
24858;BME280;12935;50.782;6.074;2023-06-14T09:51:28;99490.81;;;25.72;37.47
24858;BME280;12935;50.782;6.074;2023-06-14T09:54:01;99485.41;;;25.63;38.59
24858;BME280;12935;50.782;6.074;2023-06-14T09:56:31;99485.31;;;25.26;38.31
24858;BME280;12935;50.782;6.074;2023-06-14T09:58:59;99495.63;;;25.40;38.98
24858;BME280;12935;50.782;6.074;2023-06-14T10:01:26;99487.72;;;25.70;38.17
24858;BME280;12935;50.782;6.074;2023-06-14T10:04:05;99484.06;;;25.90;36.25
24858;BME280;12935;50.782;6.074;2023-06-14T10:06:31;99496.91;;;26.08;36.95
24858;BME280;12935;50.782;6.074;2023-06-14T10:08:58;99494.81;;;25.97;36.80
24858;BME280;12935;50.782;6.074;2023-06-14T10:11:26;99492.25;;;25.94;37.62
24858;BME280;12935;50.782;6.074;2023-06-14T10:13:52;99484.34;;;25.61;35.73
24858;BME280;12935;50.782;6.074;2023-06-14T10:16:24;99490.38;;;25.85;36.14
24858;BME280;12935;50.782;6.074;2023-06-14T10:21:55;99491.94;;;26.88;33.85
24858;BME280;12935;50.782;6.074;2023-06-14T10:24:29;99500.91;;;27.09;34.21
24858;BME280;12935;50.782;6.074;2023-06-14T10:26:57;99486.41;;;27.33;32.92
24858;BME280;12935;50.782;6.074;2023-06-14T10:29:23;99491.75;;;27.19;32.21
24858;BME280;12935;50.782;6.074;2023-06-14T10:31:50;99485.91;;;27.51;32.48
24858;BME280;12935;50.782;6.074;2023-06-14T10:34:26;99482.84;;;27.71;32.55
24858;BME280;12935;50.782;6.074;2023-06-14T10:37:12;99490.22;;;27.91;32.39
24858;BME280;12935;50.782;6.074;2023-06-14T10:39:42;99487.63;;;28.21;31.29
24858;BME280;12935;50.782;6.074;2023-06-14T10:42:08;99488.97;;;27.98;31.25
24858;BME280;12935;50.782;6.074;2023-06-14T10:44:38;99493.50;;;28.12;31.57
24858;BME280;12935;50.782;6.074;2023-06-14T10:47:24;99493.44;;;28.45;31.17
24858;BME280;12935;50.782;6.074;2023-06-14T10:52:25;99489.38;;;26.84;32.11
24858;BME280;12935;50.782;6.074;2023-06-14T10:55:15;99479.16;;;26.81;31.88
24858;BME280;12935;50.782;6.074;2023-06-14T10:57:43;99484.38;;;27.83;31.02
24858;BME280;12935;50.782;6.074;2023-06-14T11:00:11;99483.22;;;28.48;30.45
24858;BME280;12935;50.782;6.074;2023-06-14T11:10:42;99473.69;;;29.44;27.89
24858;BME280;12935;50.782;6.074;2023-06-14T11:13:08;99478.44;;;28.26;27.75
24858;BME280;12935;50.782;6.074;2023-06-14T11:15:35;99477.09;;;28.44;29.12
24858;BME280;12935;50.782;6.074;2023-06-14T11:18:05;99489.81;;;28.50;29.14
24858;BME280;12935;50.782;6.074;2023-06-14T11:20:33;99477.69;;;28.78;27.59
24858;BME280;12935;50.782;6.074;2023-06-14T11:22:58;99472.94;;;28.56;28.19
24858;BME280;12935;50.782;6.074;2023-06-14T11:25:24;99471.19;;;29.41;28.07
24858;BME280;12935;50.782;6.074;2023-06-14T11:27:50;99480.91;;;29.99;26.33
24858;BME280;12935;50.782;6.074;2023-06-14T11:30:16;99476.28;;;29.96;26.54
24858;BME280;12935;50.782;6.074;2023-06-14T11:32:42;99475.94;;;30.30;26.81
24858;BME280;12935;50.782;6.074;2023-06-14T11:35:08;99478.22;;;30.56;26.32
24858;BME280;12935;50.782;6.074;2023-06-14T11:37:36;99482.94;;;30.85;25.82
24858;BME280;12935;50.782;6.074;2023-06-14T11:40:03;99477.75;;;31.08;25.91
24858;BME280;12935;50.782;6.074;2023-06-14T11:42:33;99473.16;;;31.24;25.86
24858;BME280;12935;50.782;6.074;2023-06-14T11:44:58;99464.19;;;30.88;25.11
24858;BME280;12935;50.782;6.074;2023-06-14T11:47:24;99473.72;;;29.74;27.18
24858;BME280;12935;50.782;6.074;2023-06-14T11:49:50;99476.91;;;30.57;27.51
24858;BME280;12935;50.782;6.074;2023-06-14T11:52:16;99480.00;;;31.15;26.16
24858;BME280;12935;50.782;6.074;2023-06-14T11:54:42;99477.53;;;31.25;25.60
24858;BME280;12935;50.782;6.074;2023-06-14T11:57:07;99470.09;;;31.54;26.05
24858;BME280;12935;50.782;6.074;2023-06-14T11:59:39;99468.34;;;31.96;24.88
24858;BME280;12935;50.782;6.074;2023-06-14T12:02:06;99474.28;;;32.24;24.80
24858;BME280;12935;50.782;6.074;2023-06-14T12:04:32;99468.25;;;32.28;24.47
24858;BME280;12935;50.782;6.074;2023-06-14T12:07:08;99467.50;;;32.40;24.85
24858;BME280;12935;50.782;6.074;2023-06-14T12:09:40;99472.34;;;31.10;25.32
24858;BME280;12935;50.782;6.074;2023-06-14T12:12:05;99467.28;;;31.54;26.07
24858;BME280;12935;50.782;6.074;2023-06-14T12:14:31;99462.69;;;31.37;25.80
24858;BME280;12935;50.782;6.074;2023-06-14T12:17:07;99481.88;;;30.88;27.17
24858;BME280;12935;50.782;6.074;2023-06-14T12:19:32;99481.75;;;30.38;26.80
24858;BME280;12935;50.782;6.074;2023-06-14T12:22:00;99469.94;;;29.66;27.50
24858;BME280;12935;50.782;6.074;2023-06-14T12:24:29;99484.13;;;29.14;28.16
24858;BME280;12935;50.782;6.074;2023-06-14T12:26:57;99470.41;;;29.70;28.27
24858;BME280;12935;50.782;6.074;2023-06-14T12:29:25;99461.59;;;29.55;27.61
24858;BME280;12935;50.782;6.074;2023-06-14T12:31:50;99467.66;;;28.93;28.84
24858;BME280;12935;50.782;6.074;2023-06-14T12:34:16;99467.03;;;29.47;28.92
24858;BME280;12935;50.782;6.074;2023-06-14T12:36:41;99467.84;;;30.64;27.65
24858;BME280;12935;50.782;6.074;2023-06-14T12:39:09;99465.44;;;31.56;26.60
24858;BME280;12935;50.782;6.074;2023-06-14T12:41:35;99477.25;;;32.13;26.36
24858;BME280;12935;50.782;6.074;2023-06-14T12:44:01;99476.47;;;31.73;26.83
24858;BME280;12935;50.782;6.074;2023-06-14T12:46:30;99474.78;;;31.64;26.42
24858;BME280;12935;50.782;6.074;2023-06-14T12:48:56;99479.44;;;30.79;26.47
24858;BME280;12935;50.782;6.074;2023-06-14T12:51:21;99469.09;;;30.01;27.55
24858;BME280;12935;50.782;6.074;2023-06-14T12:53:47;99481.69;;;29.70;28.17
24858;BME280;12935;50.782;6.074;2023-06-14T12:56:14;99479.72;;;29.59;28.43
24858;BME280;12935;50.782;6.074;2023-06-14T12:58:41;99473.66;;;29.50;28.78
24858;BME280;12935;50.782;6.074;2023-06-14T13:01:06;99472.94;;;30.22;28.71
24858;BME280;12935;50.782;6.074;2023-06-14T13:03:32;99474.94;;;30.70;27.90
24858;BME280;12935;50.782;6.074;2023-06-14T13:05:58;99471.31;;;30.08;27.48
24858;BME280;12935;50.782;6.074;2023-06-14T13:08:24;99479.31;;;30.04;28.21
24858;BME280;12935;50.782;6.074;2023-06-14T13:10:49;99484.06;;;31.33;26.41